sensor_id;sensor_type;location;lat;lon;timestamp;P1;durP1;ratioP1;P2;durP2;ratioP2
73142;SDS011;61343;53.694;9.988;2022-08-07T00:01:04;12.83;;;6.70;;
73142;SDS011;61343;53.694;9.988;2022-08-07T00:03:30;13.43;;;6.78;;
73142;SDS011;61343;53.694;9.988;2022-08-07T00:05:56;16.17;;;8.20;;
73142;SDS011;61343;53.694;9.988;2022-08-07T00:08:21;12.57;;;6.45;;
73142;SDS011;61343;53.694;9.988;2022-08-07T00:10:47;13.47;;;6.77;;
73142;SDS011;61343;53.694;9.988;2022-08-07T00:13:13;14.83;;;6.30;;
73142;SDS011;61343;53.694;9.988;2022-08-07T00:15:40;13.88;;;6.78;;
73142;SDS011;61343;53.694;9.988;2022-08-07T00:18:05;15.23;;;7.50;;
73142;SDS011;61343;53.694;9.988;2022-08-07T00:20:33;14.20;;;6.90;;
73142;SDS011;61343;53.694;9.988;2022-08-07T00:22:58;12.73;;;6.57;;
73142;SDS011;61343;53.694;9.988;2022-08-07T00:25:23;13.63;;;6.10;;
73142;SDS011;61343;53.694;9.988;2022-08-07T00:27:49;12.37;;;5.90;;
73142;SDS011;61343;53.694;9.988;2022-08-07T00:30:15;12.43;;;6.03;;
73142;SDS011;61343;53.694;9.988;2022-08-07T00:32:41;10.38;;;5.40;;
73142;SDS011;61343;53.694;9.988;2022-08-07T00:35:06;16.40;;;6.60;;
73142;SDS011;61343;53.694;9.988;2022-08-07T00:37:32;19.67;;;6.88;;
73142;SDS011;61343;53.694;9.988;2022-08-07T00:39:58;11.97;;;6.03;;
73142;SDS011;61343;53.694;9.988;2022-08-07T00:42:23;13.67;;;6.50;;
73142;SDS011;61343;53.694;9.988;2022-08-07T00:44:48;16.57;;;7.37;;
73142;SDS011;61343;53.694;9.988;2022-08-07T00:47:14;14.27;;;6.10;;
73142;SDS011;61343;53.694;9.988;2022-08-07T00:49:39;10.53;;;5.90;;
73142;SDS011;61343;53.694;9.988;2022-08-07T00:52:05;11.80;;;6.05;;
73142;SDS011;61343;53.694;9.988;2022-08-07T00:54:31;10.47;;;5.70;;
73142;SDS011;61343;53.694;9.988;2022-08-07T00:56:57;12.52;;;6.00;;
73142;SDS011;61343;53.694;9.988;2022-08-07T00:59:22;11.87;;;5.60;;
73142;SDS011;61343;53.694;9.988;2022-08-07T01:01:47;11.73;;;6.10;;
73142;SDS011;61343;53.694;9.988;2022-08-07T01:04:15;11.20;;;5.93;;
73142;SDS011;61343;53.694;9.988;2022-08-07T01:06:41;12.35;;;6.20;;
73142;SDS011;61343;53.694;9.988;2022-08-07T01:09:06;13.40;;;6.40;;
73142;SDS011;61343;53.694;9.988;2022-08-07T01:11:32;11.82;;;5.45;;
73142;SDS011;61343;53.694;9.988;2022-08-07T01:13:58;12.57;;;6.47;;
73142;SDS011;61343;53.694;9.988;2022-08-07T01:16:24;12.13;;;5.85;;
73142;SDS011;61343;53.694;9.988;2022-08-07T01:18:50;10.88;;;5.90;;
73142;SDS011;61343;53.694;9.988;2022-08-07T01:21:16;11.57;;;5.60;;
73142;SDS011;61343;53.694;9.988;2022-08-07T01:23:44;11.45;;;5.65;;
73142;SDS011;61343;53.694;9.988;2022-08-07T01:26:12;13.13;;;5.97;;
73142;SDS011;61343;53.694;9.988;2022-08-07T01:28:46;13.82;;;6.15;;
73142;SDS011;61343;53.694;9.988;2022-08-07T01:31:13;11.67;;;5.73;;
73142;SDS011;61343;53.694;9.988;2022-08-07T01:33:40;10.88;;;5.78;;
73142;SDS011;61343;53.694;9.988;2022-08-07T01:36:05;11.77;;;5.90;;
73142;SDS011;61343;53.694;9.988;2022-08-07T01:38:33;12.00;;;5.55;;
73142;SDS011;61343;53.694;9.988;2022-08-07T01:40:59;10.17;;;5.30;;
73142;SDS011;61343;53.694;9.988;2022-08-07T01:43:27;12.57;;;6.10;;
73142;SDS011;61343;53.694;9.988;2022-08-07T01:45:54;13.13;;;6.13;;
73142;SDS011;61343;53.694;9.988;2022-08-07T01:48:23;10.70;;;5.80;;
73142;SDS011;61343;53.694;9.988;2022-08-07T01:50:51;11.30;;;5.85;;
73142;SDS011;61343;53.694;9.988;2022-08-07T01:53:18;12.10;;;5.97;;
73142;SDS011;61343;53.694;9.988;2022-08-07T01:55:48;12.68;;;6.03;;
73142;SDS011;61343;53.694;9.988;2022-08-07T01:58:18;10.25;;;5.68;;
73142;SDS011;61343;53.694;9.988;2022-08-07T02:00:47;11.57;;;5.63;;
73142;SDS011;61343;53.694;9.988;2022-08-07T02:03:17;11.27;;;5.60;;
73142;SDS011;61343;53.694;9.988;2022-08-07T02:05:46;11.15;;;5.60;;
73142;SDS011;61343;53.694;9.988;2022-08-07T02:08:18;10.93;;;6.00;;
73142;SDS011;61343;53.694;9.988;2022-08-07T02:10:47;11.20;;;5.88;;
73142;SDS011;61343;53.694;9.988;2022-08-07T02:13:19;11.40;;;5.70;;
73142;SDS011;61343;53.694;9.988;2022-08-07T02:15:46;10.55;;;5.90;;
73142;SDS011;61343;53.694;9.988;2022-08-07T02:18:13;10.82;;;5.60;;
73142;SDS011;61343;53.694;9.988;2022-08-07T02:20:40;10.80;;;5.65;;
73142;SDS011;61343;53.694;9.988;2022-08-07T02:23:07;11.20;;;6.13;;
73142;SDS011;61343;53.694;9.988;2022-08-07T02:25:36;11.00;;;5.83;;
73142;SDS011;61343;53.694;9.988;2022-08-07T02:28:03;12.55;;;5.78;;
73142;SDS011;61343;53.694;9.988;2022-08-07T02:30:30;12.25;;;5.47;;
73142;SDS011;61343;53.694;9.988;2022-08-07T02:32:58;9.80;;;5.60;;
73142;SDS011;61343;53.694;9.988;2022-08-07T02:35:25;9.43;;;5.18;;
73142;SDS011;61343;53.694;9.988;2022-08-07T02:37:51;9.30;;;4.97;;
73142;SDS011;61343;53.694;9.988;2022-08-07T02:40:17;9.80;;;5.50;;
73142;SDS011;61343;53.694;9.988;2022-08-07T02:42:42;10.07;;;5.27;;
73142;SDS011;61343;53.694;9.988;2022-08-07T02:45:10;9.32;;;4.90;;
73142;SDS011;61343;53.694;9.988;2022-08-07T02:47:38;10.50;;;5.53;;
73142;SDS011;61343;53.694;9.988;2022-08-07T02:50:03;10.00;;;5.27;;
73142;SDS011;61343;53.694;9.988;2022-08-07T02:52:35;11.07;;;5.57;;
73142;SDS011;61343;53.694;9.988;2022-08-07T02:55:06;9.68;;;5.53;;
73142;SDS011;61343;53.694;9.988;2022-08-07T02:57:35;10.53;;;5.27;;
73142;SDS011;61343;53.694;9.988;2022-08-07T03:00:05;10.23;;;5.50;;
73142;SDS011;61343;53.694;9.988;2022-08-07T03:02:33;10.48;;;5.90;;
73142;SDS011;61343;53.694;9.988;2022-08-07T03:05:00;11.32;;;6.05;;
73142;SDS011;61343;53.694;9.988;2022-08-07T03:07:27;9.80;;;5.15;;
73142;SDS011;61343;53.694;9.988;2022-08-07T03:09:54;11.37;;;5.73;;
73142;SDS011;61343;53.694;9.988;2022-08-07T03:12:20;12.68;;;5.65;;
73142;SDS011;61343;53.694;9.988;2022-08-07T03:14:45;10.23;;;5.77;;
73142;SDS011;61343;53.694;9.988;2022-08-07T03:17:11;11.47;;;5.90;;
73142;SDS011;61343;53.694;9.988;2022-08-07T03:19:36;11.07;;;5.80;;
73142;SDS011;61343;53.694;9.988;2022-08-07T03:22:03;10.15;;;5.63;;
73142;SDS011;61343;53.694;9.988;2022-08-07T03:24:30;10.27;;;5.53;;
73142;SDS011;61343;53.694;9.988;2022-08-07T03:26:58;10.35;;;5.40;;
73142;SDS011;61343;53.694;9.988;2022-08-07T03:29:28;10.68;;;5.68;;
73142;SDS011;61343;53.694;9.988;2022-08-07T03:32:02;9.55;;;4.93;;
73142;SDS011;61343;53.694;9.988;2022-08-07T03:34:31;10.33;;;5.30;;
73142;SDS011;61343;53.694;9.988;2022-08-07T03:36:57;9.57;;;5.20;;
73142;SDS011;61343;53.694;9.988;2022-08-07T03:39:25;11.32;;;5.53;;
73142;SDS011;61343;53.694;9.988;2022-08-07T03:41:53;13.45;;;6.00;;
73142;SDS011;61343;53.694;9.988;2022-08-07T03:44:19;10.57;;;5.53;;
73142;SDS011;61343;53.694;9.988;2022-08-07T03:46:44;10.65;;;5.22;;
73142;SDS011;61343;53.694;9.988;2022-08-07T03:49:10;10.43;;;6.07;;
73142;SDS011;61343;53.694;9.988;2022-08-07T03:51:35;9.50;;;5.53;;
73142;SDS011;61343;53.694;9.988;2022-08-07T03:54:02;9.95;;;5.68;;
73142;SDS011;61343;53.694;9.988;2022-08-07T03:56:27;12.02;;;5.80;;
73142;SDS011;61343;53.694;9.988;2022-08-07T03:58:55;11.60;;;5.40;;
73142;SDS011;61343;53.694;9.988;2022-08-07T04:01:21;10.03;;;5.10;;
73142;SDS011;61343;53.694;9.988;2022-08-07T04:03:47;9.45;;;5.10;;
73142;SDS011;61343;53.694;9.988;2022-08-07T04:06:14;10.65;;;5.32;;
73142;SDS011;61343;53.694;9.988;2022-08-07T04:08:39;10.43;;;5.53;;
73142;SDS011;61343;53.694;9.988;2022-08-07T04:11:06;9.60;;;4.97;;
73142;SDS011;61343;53.694;9.988;2022-08-07T04:13:32;8.98;;;5.22;;
73142;SDS011;61343;53.694;9.988;2022-08-07T04:15:59;10.02;;;4.97;;
73142;SDS011;61343;53.694;9.988;2022-08-07T04:18:24;9.57;;;5.00;;
73142;SDS011;61343;53.694;9.988;2022-08-07T04:20:50;10.10;;;5.37;;
73142;SDS011;61343;53.694;9.988;2022-08-07T04:23:15;10.40;;;5.25;;
73142;SDS011;61343;53.694;9.988;2022-08-07T04:25:42;9.57;;;5.17;;
73142;SDS011;61343;53.694;9.988;2022-08-07T04:28:07;10.80;;;5.72;;
73142;SDS011;61343;53.694;9.988;2022-08-07T04:30:34;10.00;;;5.45;;
73142;SDS011;61343;53.694;9.988;2022-08-07T04:33:04;10.93;;;5.50;;
73142;SDS011;61343;53.694;9.988;2022-08-07T04:35:30;10.25;;;5.20;;
73142;SDS011;61343;53.694;9.988;2022-08-07T04:37:56;10.33;;;4.93;;
73142;SDS011;61343;53.694;9.988;2022-08-07T04:40:21;9.38;;;5.10;;
73142;SDS011;61343;53.694;9.988;2022-08-07T04:42:47;9.00;;;5.03;;
73142;SDS011;61343;53.694;9.988;2022-08-07T04:45:12;9.93;;;5.20;;
73142;SDS011;61343;53.694;9.988;2022-08-07T04:47:42;9.80;;;5.03;;
73142;SDS011;61343;53.694;9.988;2022-08-07T04:50:20;9.32;;;4.75;;
73142;SDS011;61343;53.694;9.988;2022-08-07T04:52:59;9.75;;;5.40;;
73142;SDS011;61343;53.694;9.988;2022-08-07T04:55:33;9.90;;;5.30;;
73142;SDS011;61343;53.694;9.988;2022-08-07T05:00:50;11.30;;;5.37;;
73142;SDS011;61343;53.694;9.988;2022-08-07T05:06:21;9.52;;;5.43;;
73142;SDS011;61343;53.694;9.988;2022-08-07T05:08:54;9.77;;;5.45;;
73142;SDS011;61343;53.694;9.988;2022-08-07T05:11:53;10.25;;;5.57;;
73142;SDS011;61343;53.694;9.988;2022-08-07T05:14:42;13.03;;;5.93;;
73142;SDS011;61343;53.694;9.988;2022-08-07T05:17:07;12.23;;;6.13;;
73142;SDS011;61343;53.694;9.988;2022-08-07T05:19:43;12.07;;;5.68;;
73142;SDS011;61343;53.694;9.988;2022-08-07T05:22:13;12.80;;;6.13;;
73142;SDS011;61343;53.694;9.988;2022-08-07T05:24:41;9.80;;;5.53;;
73142;SDS011;61343;53.694;9.988;2022-08-07T05:27:09;12.15;;;6.10;;
73142;SDS011;61343;53.694;9.988;2022-08-07T05:29:38;11.85;;;5.80;;
73142;SDS011;61343;53.694;9.988;2022-08-07T05:32:06;10.25;;;5.82;;
73142;SDS011;61343;53.694;9.988;2022-08-07T05:34:34;11.95;;;6.03;;
73142;SDS011;61343;53.694;9.988;2022-08-07T05:37:00;11.00;;;5.93;;
73142;SDS011;61343;53.694;9.988;2022-08-07T05:39:27;12.07;;;6.53;;
73142;SDS011;61343;53.694;9.988;2022-08-07T05:41:52;13.70;;;6.33;;
73142;SDS011;61343;53.694;9.988;2022-08-07T05:44:19;13.60;;;6.50;;
73142;SDS011;61343;53.694;9.988;2022-08-07T05:46:47;11.20;;;6.13;;
73142;SDS011;61343;53.694;9.988;2022-08-07T05:49:13;12.13;;;6.43;;
73142;SDS011;61343;53.694;9.988;2022-08-07T05:51:43;11.07;;;5.70;;
73142;SDS011;61343;53.694;9.988;2022-08-07T05:54:09;13.10;;;6.00;;
73142;SDS011;61343;53.694;9.988;2022-08-07T05:56:36;10.52;;;5.95;;
73142;SDS011;61343;53.694;9.988;2022-08-07T05:59:04;11.90;;;5.75;;
73142;SDS011;61343;53.694;9.988;2022-08-07T06:01:33;14.93;;;7.37;;
73142;SDS011;61343;53.694;9.988;2022-08-07T06:04:00;11.93;;;5.88;;
73142;SDS011;61343;53.694;9.988;2022-08-07T06:06:28;10.60;;;5.18;;
73142;SDS011;61343;53.694;9.988;2022-08-07T06:08:55;11.38;;;4.90;;
73142;SDS011;61343;53.694;9.988;2022-08-07T06:11:21;11.67;;;5.57;;
73142;SDS011;61343;53.694;9.988;2022-08-07T06:13:47;11.18;;;5.03;;
73142;SDS011;61343;53.694;9.988;2022-08-07T06:16:12;10.37;;;5.17;;
73142;SDS011;61343;53.694;9.988;2022-08-07T06:18:39;9.80;;;4.85;;
73142;SDS011;61343;53.694;9.988;2022-08-07T06:21:04;11.50;;;4.87;;
73142;SDS011;61343;53.694;9.988;2022-08-07T06:23:31;12.38;;;4.78;;
73142;SDS011;61343;53.694;9.988;2022-08-07T06:25:57;11.13;;;4.87;;
73142;SDS011;61343;53.694;9.988;2022-08-07T06:28:24;9.57;;;4.70;;
73142;SDS011;61343;53.694;9.988;2022-08-07T06:30:49;8.43;;;4.60;;
73142;SDS011;61343;53.694;9.988;2022-08-07T06:33:15;10.50;;;5.23;;
73142;SDS011;61343;53.694;9.988;2022-08-07T06:35:42;11.25;;;5.03;;
73142;SDS011;61343;53.694;9.988;2022-08-07T06:38:08;17.05;;;5.90;;
73142;SDS011;61343;53.694;9.988;2022-08-07T06:40:34;12.70;;;5.53;;
73142;SDS011;61343;53.694;9.988;2022-08-07T06:43:03;13.85;;;6.60;;
73142;SDS011;61343;53.694;9.988;2022-08-07T06:45:32;11.10;;;5.10;;
73142;SDS011;61343;53.694;9.988;2022-08-07T06:47:58;10.02;;;4.68;;
73142;SDS011;61343;53.694;9.988;2022-08-07T06:50:25;9.25;;;4.80;;
73142;SDS011;61343;53.694;9.988;2022-08-07T06:52:52;10.40;;;5.03;;
73142;SDS011;61343;53.694;9.988;2022-08-07T06:55:21;11.05;;;4.93;;
73142;SDS011;61343;53.694;9.988;2022-08-07T06:57:48;10.80;;;4.78;;
73142;SDS011;61343;53.694;9.988;2022-08-07T07:00:16;11.93;;;5.45;;
73142;SDS011;61343;53.694;9.988;2022-08-07T07:02:43;11.30;;;5.32;;
73142;SDS011;61343;53.694;9.988;2022-08-07T07:05:09;9.10;;;4.17;;
73142;SDS011;61343;53.694;9.988;2022-08-07T07:07:36;8.07;;;3.90;;
73142;SDS011;61343;53.694;9.988;2022-08-07T07:10:02;9.67;;;4.03;;
73142;SDS011;61343;53.694;9.988;2022-08-07T07:15:15;10.13;;;4.68;;
73142;SDS011;61343;53.694;9.988;2022-08-07T07:17:46;11.02;;;5.43;;
73142;SDS011;61343;53.694;9.988;2022-08-07T07:20:21;7.60;;;3.92;;
73142;SDS011;61343;53.694;9.988;2022-08-07T07:22:49;8.20;;;4.07;;
73142;SDS011;61343;53.694;9.988;2022-08-07T07:25:16;7.97;;;3.90;;
73142;SDS011;61343;53.694;9.988;2022-08-07T07:27:49;8.18;;;4.00;;
73142;SDS011;61343;53.694;9.988;2022-08-07T07:30:21;7.20;;;3.92;;
73142;SDS011;61343;53.694;9.988;2022-08-07T07:32:52;9.07;;;4.10;;
73142;SDS011;61343;53.694;9.988;2022-08-07T07:35:21;8.50;;;3.60;;
73142;SDS011;61343;53.694;9.988;2022-08-07T07:37:48;7.97;;;3.63;;
73142;SDS011;61343;53.694;9.988;2022-08-07T07:40:15;9.75;;;4.70;;
73142;SDS011;61343;53.694;9.988;2022-08-07T07:42:42;8.57;;;4.00;;
73142;SDS011;61343;53.694;9.988;2022-08-07T07:45:10;7.88;;;3.72;;
73142;SDS011;61343;53.694;9.988;2022-08-07T07:47:38;7.83;;;3.60;;
73142;SDS011;61343;53.694;9.988;2022-08-07T07:50:07;8.05;;;3.45;;
73142;SDS011;61343;53.694;9.988;2022-08-07T07:52:35;9.93;;;3.70;;
73142;SDS011;61343;53.694;9.988;2022-08-07T07:55:02;9.95;;;3.65;;
73142;SDS011;61343;53.694;9.988;2022-08-07T07:57:29;8.38;;;3.28;;
73142;SDS011;61343;53.694;9.988;2022-08-07T07:59:57;10.73;;;3.80;;
73142;SDS011;61343;53.694;9.988;2022-08-07T08:02:25;9.13;;;4.13;;
73142;SDS011;61343;53.694;9.988;2022-08-07T08:04:53;9.07;;;4.20;;
73142;SDS011;61343;53.694;9.988;2022-08-07T08:07:20;13.32;;;3.53;;
73142;SDS011;61343;53.694;9.988;2022-08-07T08:09:47;9.52;;;3.60;;
73142;SDS011;61343;53.694;9.988;2022-08-07T08:12:14;9.00;;;3.30;;
73142;SDS011;61343;53.694;9.988;2022-08-07T08:14:40;7.32;;;3.35;;
73142;SDS011;61343;53.694;9.988;2022-08-07T08:17:06;8.87;;;3.93;;
73142;SDS011;61343;53.694;9.988;2022-08-07T08:19:34;7.97;;;4.00;;
73142;SDS011;61343;53.694;9.988;2022-08-07T08:22:01;7.50;;;3.60;;
73142;SDS011;61343;53.694;9.988;2022-08-07T08:24:58;6.82;;;3.40;;
73142;SDS011;61343;53.694;9.988;2022-08-07T08:27:45;6.95;;;3.35;;
73142;SDS011;61343;53.694;9.988;2022-08-07T08:30:16;6.17;;;3.27;;
73142;SDS011;61343;53.694;9.988;2022-08-07T08:32:42;6.85;;;3.60;;
73142;SDS011;61343;53.694;9.988;2022-08-07T08:35:12;7.03;;;3.67;;
73142;SDS011;61343;53.694;9.988;2022-08-07T08:37:42;10.50;;;3.43;;
73142;SDS011;61343;53.694;9.988;2022-08-07T08:40:17;8.93;;;3.33;;
73142;SDS011;61343;53.694;9.988;2022-08-07T08:42:48;6.97;;;3.20;;
73142;SDS011;61343;53.694;9.988;2022-08-07T08:50:38;6.93;;;3.33;;
73142;SDS011;61343;53.694;9.988;2022-08-07T08:53:27;7.28;;;3.28;;
73142;SDS011;61343;53.694;9.988;2022-08-07T08:56:05;6.78;;;3.38;;
73142;SDS011;61343;53.694;9.988;2022-08-07T08:58:48;6.90;;;3.60;;
73142;SDS011;61343;53.694;9.988;2022-08-07T09:01:25;7.88;;;3.70;;
73142;SDS011;61343;53.694;9.988;2022-08-07T09:04:09;8.97;;;3.30;;
73142;SDS011;61343;53.694;9.988;2022-08-07T09:12:36;7.25;;;3.30;;
73142;SDS011;61343;53.694;9.988;2022-08-07T09:15:29;6.22;;;3.05;;
73142;SDS011;61343;53.694;9.988;2022-08-07T09:26:21;6.28;;;2.97;;
73142;SDS011;61343;53.694;9.988;2022-08-07T09:28:54;8.75;;;3.33;;
73142;SDS011;61343;53.694;9.988;2022-08-07T09:31:40;7.27;;;3.40;;
73142;SDS011;61343;53.694;9.988;2022-08-07T09:34:24;7.68;;;3.10;;
73142;SDS011;61343;53.694;9.988;2022-08-07T09:40:00;8.43;;;3.35;;
73142;SDS011;61343;53.694;9.988;2022-08-07T09:48:14;6.68;;;3.38;;
73142;SDS011;61343;53.694;9.988;2022-08-07T09:54:05;6.70;;;3.45;;
73142;SDS011;61343;53.694;9.988;2022-08-07T10:05:25;6.40;;;2.97;;
73142;SDS011;61343;53.694;9.988;2022-08-07T10:13:31;7.30;;;3.13;;
73142;SDS011;61343;53.694;9.988;2022-08-07T10:21:39;11.07;;;4.68;;
73142;SDS011;61343;53.694;9.988;2022-08-07T10:24:21;11.25;;;5.00;;
73142;SDS011;61343;53.694;9.988;2022-08-07T10:27:02;7.73;;;3.27;;
73142;SDS011;61343;53.694;9.988;2022-08-07T10:35:23;7.75;;;3.40;;
73142;SDS011;61343;53.694;9.988;2022-08-07T10:40:52;6.33;;;2.90;;
73142;SDS011;61343;53.694;9.988;2022-08-07T10:43:32;6.13;;;3.05;;
73142;SDS011;61343;53.694;9.988;2022-08-07T10:46:00;8.23;;;2.70;;
73142;SDS011;61343;53.694;9.988;2022-08-07T10:51:22;6.20;;;3.15;;
73142;SDS011;61343;53.694;9.988;2022-08-07T10:54:10;7.50;;;3.13;;
73142;SDS011;61343;53.694;9.988;2022-08-07T11:00:06;7.55;;;3.15;;
73142;SDS011;61343;53.694;9.988;2022-08-07T11:02:45;6.15;;;2.70;;
73142;SDS011;61343;53.694;9.988;2022-08-07T11:05:31;6.00;;;2.80;;
73142;SDS011;61343;53.694;9.988;2022-08-07T11:08:39;6.73;;;2.77;;
73142;SDS011;61343;53.694;9.988;2022-08-07T11:11:14;5.80;;;2.97;;
73142;SDS011;61343;53.694;9.988;2022-08-07T11:13:49;5.97;;;2.67;;
73142;SDS011;61343;53.694;9.988;2022-08-07T11:24:23;6.40;;;2.60;;
73142;SDS011;61343;53.694;9.988;2022-08-07T11:27:02;6.18;;;2.60;;
73142;SDS011;61343;53.694;9.988;2022-08-07T11:29:47;5.85;;;2.63;;
73142;SDS011;61343;53.694;9.988;2022-08-07T11:32:22;6.70;;;2.45;;
73142;SDS011;61343;53.694;9.988;2022-08-07T11:34:58;8.47;;;2.80;;
73142;SDS011;61343;53.694;9.988;2022-08-07T11:43:16;6.53;;;2.90;;
73142;SDS011;61343;53.694;9.988;2022-08-07T12:00:05;6.07;;;2.67;;
73142;SDS011;61343;53.694;9.988;2022-08-07T12:08:49;6.65;;;3.00;;
73142;SDS011;61343;53.694;9.988;2022-08-07T12:14:27;6.47;;;2.80;;
73142;SDS011;61343;53.694;9.988;2022-08-07T12:17:00;5.33;;;2.60;;
73142;SDS011;61343;53.694;9.988;2022-08-07T12:22:18;6.18;;;2.50;;
73142;SDS011;61343;53.694;9.988;2022-08-07T12:25:16;5.95;;;2.50;;
73142;SDS011;61343;53.694;9.988;2022-08-07T12:28:07;6.05;;;2.60;;
73142;SDS011;61343;53.694;9.988;2022-08-07T12:30:41;5.60;;;2.50;;
73142;SDS011;61343;53.694;9.988;2022-08-07T12:33:11;5.28;;;2.38;;
73142;SDS011;61343;53.694;9.988;2022-08-07T12:35:42;5.47;;;2.60;;
73142;SDS011;61343;53.694;9.988;2022-08-07T12:38:10;6.00;;;2.50;;
73142;SDS011;61343;53.694;9.988;2022-08-07T12:40:38;5.45;;;2.58;;
73142;SDS011;61343;53.694;9.988;2022-08-07T12:43:06;6.80;;;2.70;;
73142;SDS011;61343;53.694;9.988;2022-08-07T12:51:49;5.68;;;2.70;;
73142;SDS011;61343;53.694;9.988;2022-08-07T12:54:24;5.45;;;2.50;;
73142;SDS011;61343;53.694;9.988;2022-08-07T12:56:54;5.63;;;2.40;;
73142;SDS011;61343;53.694;9.988;2022-08-07T12:59:22;7.93;;;2.78;;
73142;SDS011;61343;53.694;9.988;2022-08-07T13:02:05;6.75;;;2.97;;
73142;SDS011;61343;53.694;9.988;2022-08-07T13:13:53;5.80;;;2.80;;
73142;SDS011;61343;53.694;9.988;2022-08-07T13:16:28;5.75;;;2.40;;
73142;SDS011;61343;53.694;9.988;2022-08-07T13:19:01;6.30;;;2.40;;
73142;SDS011;61343;53.694;9.988;2022-08-07T13:21:39;6.07;;;2.53;;
73142;SDS011;61343;53.694;9.988;2022-08-07T13:27:17;5.38;;;2.70;;
73142;SDS011;61343;53.694;9.988;2022-08-07T13:30:08;5.80;;;2.55;;
73142;SDS011;61343;53.694;9.988;2022-08-07T13:32:40;6.57;;;2.60;;
73142;SDS011;61343;53.694;9.988;2022-08-07T13:35:15;6.05;;;2.60;;
73142;SDS011;61343;53.694;9.988;2022-08-07T13:43:28;5.80;;;2.80;;
73142;SDS011;61343;53.694;9.988;2022-08-07T13:45:59;6.43;;;2.80;;
73142;SDS011;61343;53.694;9.988;2022-08-07T13:48:27;5.78;;;2.53;;
73142;SDS011;61343;53.694;9.988;2022-08-07T13:50:56;5.50;;;2.60;;
73142;SDS011;61343;53.694;9.988;2022-08-07T13:53:30;6.25;;;2.70;;
73142;SDS011;61343;53.694;9.988;2022-08-07T13:56:00;5.05;;;2.50;;
73142;SDS011;61343;53.694;9.988;2022-08-07T13:58:27;5.95;;;2.60;;
73142;SDS011;61343;53.694;9.988;2022-08-07T14:01:13;8.20;;;3.78;;
73142;SDS011;61343;53.694;9.988;2022-08-07T14:03:41;6.20;;;2.90;;
73142;SDS011;61343;53.694;9.988;2022-08-07T14:06:08;8.32;;;2.70;;
73142;SDS011;61343;53.694;9.988;2022-08-07T14:08:38;8.52;;;3.10;;
73142;SDS011;61343;53.694;9.988;2022-08-07T14:11:07;6.55;;;2.83;;
73142;SDS011;61343;53.694;9.988;2022-08-07T14:13:35;6.07;;;2.80;;
73142;SDS011;61343;53.694;9.988;2022-08-07T14:16:04;8.10;;;2.70;;
73142;SDS011;61343;53.694;9.988;2022-08-07T14:18:33;7.80;;;2.58;;
73142;SDS011;61343;53.694;9.988;2022-08-07T14:21:10;5.95;;;2.90;;
73142;SDS011;61343;53.694;9.988;2022-08-07T14:23:47;6.70;;;2.60;;
73142;SDS011;61343;53.694;9.988;2022-08-07T14:26:19;5.75;;;2.40;;
73142;SDS011;61343;53.694;9.988;2022-08-07T14:28:47;5.33;;;2.73;;
73142;SDS011;61343;53.694;9.988;2022-08-07T14:31:14;5.78;;;2.90;;
73142;SDS011;61343;53.694;9.988;2022-08-07T14:33:40;7.45;;;2.75;;
73142;SDS011;61343;53.694;9.988;2022-08-07T14:36:06;5.35;;;2.40;;
73142;SDS011;61343;53.694;9.988;2022-08-07T14:38:33;5.13;;;2.47;;
73142;SDS011;61343;53.694;9.988;2022-08-07T14:41:09;6.80;;;2.65;;
73142;SDS011;61343;53.694;9.988;2022-08-07T14:43:40;6.13;;;3.17;;
73142;SDS011;61343;53.694;9.988;2022-08-07T14:46:09;5.97;;;2.70;;
73142;SDS011;61343;53.694;9.988;2022-08-07T14:48:36;5.80;;;2.60;;
73142;SDS011;61343;53.694;9.988;2022-08-07T14:51:05;6.47;;;2.90;;
73142;SDS011;61343;53.694;9.988;2022-08-07T14:53:35;5.25;;;2.20;;
73142;SDS011;61343;53.694;9.988;2022-08-07T14:56:04;6.05;;;2.50;;
73142;SDS011;61343;53.694;9.988;2022-08-07T14:58:33;5.93;;;2.50;;
73142;SDS011;61343;53.694;9.988;2022-08-07T15:01:01;6.33;;;2.50;;
73142;SDS011;61343;53.694;9.988;2022-08-07T15:03:28;5.10;;;2.60;;
73142;SDS011;61343;53.694;9.988;2022-08-07T15:05:56;6.22;;;2.30;;
73142;SDS011;61343;53.694;9.988;2022-08-07T15:08:23;7.20;;;2.70;;
73142;SDS011;61343;53.694;9.988;2022-08-07T15:10:56;5.10;;;2.28;;
73142;SDS011;61343;53.694;9.988;2022-08-07T15:13:25;6.00;;;2.60;;
73142;SDS011;61343;53.694;9.988;2022-08-07T15:15:55;5.40;;;2.50;;
73142;SDS011;61343;53.694;9.988;2022-08-07T15:18:39;5.35;;;2.45;;
73142;SDS011;61343;53.694;9.988;2022-08-07T15:21:28;7.85;;;3.22;;
73142;SDS011;61343;53.694;9.988;2022-08-07T15:23:56;5.70;;;2.58;;
73142;SDS011;61343;53.694;9.988;2022-08-07T15:26:32;6.83;;;2.73;;
73142;SDS011;61343;53.694;9.988;2022-08-07T15:29:02;5.32;;;2.50;;
73142;SDS011;61343;53.694;9.988;2022-08-07T15:31:30;5.68;;;2.80;;
73142;SDS011;61343;53.694;9.988;2022-08-07T15:33:57;7.07;;;2.78;;
73142;SDS011;61343;53.694;9.988;2022-08-07T15:36:26;6.40;;;2.35;;
73142;SDS011;61343;53.694;9.988;2022-08-07T15:38:52;5.37;;;2.30;;
73142;SDS011;61343;53.694;9.988;2022-08-07T15:41:21;6.70;;;2.65;;
73142;SDS011;61343;53.694;9.988;2022-08-07T15:43:58;5.32;;;2.40;;
73142;SDS011;61343;53.694;9.988;2022-08-07T15:46:29;5.43;;;2.50;;
73142;SDS011;61343;53.694;9.988;2022-08-07T15:48:58;6.03;;;2.40;;
73142;SDS011;61343;53.694;9.988;2022-08-07T15:51:26;5.10;;;2.57;;
73142;SDS011;61343;53.694;9.988;2022-08-07T15:53:54;6.93;;;2.70;;
73142;SDS011;61343;53.694;9.988;2022-08-07T15:56:22;8.82;;;3.28;;
73142;SDS011;61343;53.694;9.988;2022-08-07T15:58:58;5.57;;;2.60;;
73142;SDS011;61343;53.694;9.988;2022-08-07T16:01:31;6.35;;;2.60;;
73142;SDS011;61343;53.694;9.988;2022-08-07T16:04:03;7.33;;;2.20;;
73142;SDS011;61343;53.694;9.988;2022-08-07T16:06:41;5.15;;;2.40;;
73142;SDS011;61343;53.694;9.988;2022-08-07T16:11:59;5.32;;;2.55;;
73142;SDS011;61343;53.694;9.988;2022-08-07T16:14:31;7.35;;;2.92;;
73142;SDS011;61343;53.694;9.988;2022-08-07T16:23:31;6.68;;;3.90;;
73142;SDS011;61343;53.694;9.988;2022-08-07T16:33:59;5.55;;;2.40;;
73142;SDS011;61343;53.694;9.988;2022-08-07T16:59:02;5.20;;;2.43;;
73142;SDS011;61343;53.694;9.988;2022-08-07T17:07:20;4.55;;;2.05;;
73142;SDS011;61343;53.694;9.988;2022-08-07T17:10:02;4.97;;;2.33;;
73142;SDS011;61343;53.694;9.988;2022-08-07T17:15:31;7.07;;;2.78;;
73142;SDS011;61343;53.694;9.988;2022-08-07T17:21:01;5.80;;;2.60;;
73142;SDS011;61343;53.694;9.988;2022-08-07T17:23:39;5.80;;;2.70;;
73142;SDS011;61343;53.694;9.988;2022-08-07T17:26:16;6.17;;;2.30;;
73142;SDS011;61343;53.694;9.988;2022-08-07T17:31:33;5.47;;;2.38;;
73142;SDS011;61343;53.694;9.988;2022-08-07T17:34:10;6.22;;;2.28;;
73142;SDS011;61343;53.694;9.988;2022-08-07T17:36:49;6.25;;;2.67;;
73142;SDS011;61343;53.694;9.988;2022-08-07T17:39:29;5.80;;;2.50;;
73142;SDS011;61343;53.694;9.988;2022-08-07T17:42:03;6.30;;;2.30;;
73142;SDS011;61343;53.694;9.988;2022-08-07T17:44:35;6.10;;;2.88;;
73142;SDS011;61343;53.694;9.988;2022-08-07T17:47:10;6.03;;;2.55;;
73142;SDS011;61343;53.694;9.988;2022-08-07T17:49:41;6.53;;;2.97;;
73142;SDS011;61343;53.694;9.988;2022-08-07T17:55:13;9.30;;;3.20;;
73142;SDS011;61343;53.694;9.988;2022-08-07T17:57:50;8.23;;;3.10;;
73142;SDS011;61343;53.694;9.988;2022-08-07T18:00:40;6.10;;;2.83;;
73142;SDS011;61343;53.694;9.988;2022-08-07T18:13:48;9.40;;;5.05;;
73142;SDS011;61343;53.694;9.988;2022-08-07T18:19:28;11.17;;;5.83;;
73142;SDS011;61343;53.694;9.988;2022-08-07T18:22:07;12.95;;;5.82;;
73142;SDS011;61343;53.694;9.988;2022-08-07T18:24:47;14.48;;;6.18;;
73142;SDS011;61343;53.694;9.988;2022-08-07T18:35:21;8.57;;;5.18;;
73142;SDS011;61343;53.694;9.988;2022-08-07T18:43:10;8.68;;;4.70;;
73142;SDS011;61343;53.694;9.988;2022-08-07T18:50:58;8.15;;;3.80;;